Time;durP1;ratioP1;P1;durP2;ratioP2;P2;SDS_P1;SDS_P2;PMS_P1;PMS_P2;Temp;Humidity;BMP_temperature;BMP_pressure;BME280_temperature;BME280_humidity;BME280_pressure;Samples;Min_cycle;Max_cycle;Signal;HPM_P1;HPM_P2
2021/07/12 00:00:01;;;;;;;;;;;21.30;89.10;21.50;99075.00;;;;335957;28;83245;-86
2021/07/12 00:00:15;;;;;;;;;;;21.40;89.10;21.50;99074.00;;;;336812;28;93669;-86
2021/07/12 00:00:29;;;;;;;;;;;21.30;88.70;21.50;99069.00;;;;335271;29;83149;-87
2021/07/12 00:00:41;;;;;;;;;;;21.30;88.70;21.50;99072.00;;;;331663;29;93513;-86
2021/07/12 00:00:52;;;;;;;;;;;21.30;89.10;21.50;99070.00;;;;333942;29;83507;-87
2021/07/12 00:01:04;;;;;;;;;;;21.30;89.20;21.50;99072.00;;;;335885;28;93998;-86
2021/07/12 00:01:16;;;;;;;;;;;21.30;89.20;21.40;99076.00;;;;336785;28;83302;-86
2021/07/12 00:01:28;;;;;;;;;;;21.30;89.10;21.40;99072.00;;;;336016;28;93976;-86
2021/07/12 00:01:40;;;;;;;;;;;21.30;88.60;21.50;99078.00;;;;335336;29;83431;-86
2021/07/12 00:01:52;;;;;;;;;;;21.30;88.80;21.40;99079.00;;;;335866;28;97509;-86
2021/07/12 00:02:04;;;;;;;;;;;21.40;89.00;21.50;99083.00;;;;334156;29;83396;-86
2021/07/12 00:02:16;;;;;;;;;;;21.30;88.80;21.50;99076.00;;;;333460;29;93148;-86
2021/07/12 00:02:27;;;;;;;;;;;21.30;88.10;21.50;99076.00;;;;332878;29;82405;-86
2021/07/12 00:02:39;;;;;;;;;;;21.30;87.80;21.60;99078.00;;;;333323;29;94548;-86
2021/07/12 00:02:51;;;;;;;;;;;21.30;88.20;21.70;99078.00;;;;334090;29;82612;-87
2021/07/12 00:03:05;;;;;;;;;;;21.40;88.80;21.70;99079.00;;;;334977;28;93116;-86
2021/07/12 00:03:17;;;;;;;;;;;21.30;89.00;21.70;99086.00;;;;335245;29;83287;-87
2021/07/12 00:03:31;;;;;;;;;;;21.40;88.90;21.60;99077.00;;;;337169;28;93820;-86
2021/07/12 00:03:43;;;;;;;;;;;21.40;89.00;21.60;99082.00;;;;334128;29;83247;-86
2021/07/12 00:03:54;;;;;;;;;;;21.40;88.60;21.50;99085.00;;;;337289;28;95358;-86
2021/07/12 00:04:06;;;;;;;;;;;21.40;88.40;21.50;99079.00;;;;337877;28;83490;-86
2021/07/12 00:04:18;;;;;;;;;;;21.40;88.50;21.50;99085.00;;;;337208;28;94357;-87
2021/07/12 00:04:30;;;;;;;;;;;21.40;88.60;21.70;99079.00;;;;338125;28;83211;-86
2021/07/12 00:04:41;;;;;;;;;;;21.40;88.80;21.70;99090.00;;;;334722;29;94152;-87
2021/07/12 00:04:53;;;;;;;;;;;21.40;89.00;21.70;99092.00;;;;335321;28;83577;-87
2021/07/12 00:05:05;;;;;;;;;;;21.40;88.80;21.60;99084.00;;;;337285;28;94165;-86
2021/07/12 00:05:18;;;;;;;;;;;21.40;88.70;21.70;99085.00;;;;335559;29;82450;-86
2021/07/12 00:05:31;;;;;;;;;;;21.40;88.80;21.70;99087.00;;;;337156;28;95540;-86
2021/07/12 00:05:43;;;;;;;;;;;21.40;89.00;21.70;99092.00;;;;335535;29;83383;-86
2021/07/12 00:05:54;;;;;;;;;;;21.40;88.80;21.60;99088.00;;;;337300;28;93412;-86
2021/07/12 00:06:06;;;;;;;;;;;21.40;89.10;21.60;99086.00;;;;332571;29;83492;-86
2021/07/12 00:06:18;;;;;;;;;;;21.40;89.20;21.70;99090.00;;;;334391;29;96792;-86
2021/07/12 00:06:29;;;;;;;;;;;21.40;89.70;21.70;99093.00;;;;335389;29;83192;-87
2021/07/12 00:06:41;;;;;;;;;;;21.40;89.50;21.70;99096.00;;;;335713;28;93830;-86
2021/07/12 00:06:53;;;;;;;;;;;21.40;89.20;21.60;99096.00;;;;336673;28;83464;-86
2021/07/12 00:07:04;;;;;;;;;;;21.40;89.60;21.60;99092.00;;;;335928;28;93011;-86
2021/07/12 00:07:16;;;;;;;;;;;21.40;89.90;21.60;99099.00;;;;335371;29;83375;-86
2021/07/12 00:07:28;;;;;;;;;;;21.40;90.20;21.50;99099.00;;;;335980;28;94016;-86
2021/07/12 00:07:40;;;;;;;;;;;21.40;90.00;21.60;99098.00;;;;336752;28;83375;-86
2021/07/12 00:07:52;;;;;;;;;;;21.40;89.30;21.60;99096.00;;;;335986;28;93189;-86
2021/07/12 00:08:04;;;;;;;;;;;21.40;88.70;21.70;99101.00;;;;335502;29;82376;-87
2021/07/12 00:08:15;;;;;;;;;;;21.40;88.90;21.70;99097.00;;;;334663;29;93812;-86
2021/07/12 00:08:27;;;;;;;;;;;21.40;88.80;21.70;99103.00;;;;335320;29;83449;-86
2021/07/12 00:08:39;;;;;;;;;;;21.40;88.70;21.60;99099.00;;;;334788;29;91870;-86
2021/07/12 00:08:51;;;;;;;;;;;21.40;89.20;21.60;99093.00;;;;335337;29;83238;-87
2021/07/12 00:09:04;;;;;;;;;;;21.40;89.70;21.60;99102.00;;;;336384;28;92694;-86
2021/07/12 00:09:15;;;;;;;;;;;21.40;89.20;21.50;99102.00;;;;338952;28;83503;-86
2021/07/12 00:09:27;;;;;;;;;;;21.40;89.90;21.50;99092.00;;;;337242;28;93206;-86
2021/07/12 00:09:39;;;;;;;;;;;21.40;90.00;21.50;99101.00;;;;336513;28;83432;-86
2021/07/12 00:09:50;;;;;;;;;;;21.40;90.00;21.50;99096.00;;;;336081;28;92888;-86
2021/07/12 00:10:05;;;;;;;;;;;21.40;89.40;21.50;99095.00;;;;336781;28;83361;-87
2021/07/12 00:10:24;;;;;;;;;;;21.40;89.00;21.50;99094.00;;;;337216;28;94155;-85
2021/07/12 00:10:36;;;;;;;;;;;21.40;89.70;21.50;99101.00;;;;338117;28;83337;-86
2021/07/12 00:10:48;;;;;;;;;;;21.40;89.20;21.40;99097.00;;;;335971;28;94599;-87
2021/07/12 00:10:59;;;;;;;;;;;21.40;89.80;21.50;99093.00;;;;336607;28;83351;-86
2021/07/12 00:11:11;;;;;;;;;;;21.30;89.30;21.50;99101.00;;;;337327;28;94514;-87
2021/07/12 00:11:23;;;;;;;;;;;21.40;89.00;21.40;99104.00;;;;338063;28;83323;-86
2021/07/12 00:11:36;;;;;;;;;;;21.30;90.00;21.40;99089.00;;;;334657;29;93983;-87
2021/07/12 00:11:48;;;;;;;;;;;21.30;89.80;21.40;99101.00;;;;336756;28;83297;-86
2021/07/12 00:11:59;;;;;;;;;;;21.30;89.70;21.40;99097.00;;;;335275;28;95331;-86
2021/07/12 00:12:11;;;;;;;;;;;21.30;89.50;21.50;99101.00;;;;334478;29;83464;-86
2021/07/12 00:12:23;;;;;;;;;;;21.30;89.20;21.60;99100.00;;;;337011;28;95971;-86
2021/07/12 00:12:34;;;;;;;;;;;21.30;89.20;21.60;99102.00;;;;335236;29;83463;-87
2021/07/12 00:12:47;;;;;;;;;;;21.30;89.00;21.60;99099.00;;;;337383;28;94159;-86
2021/07/12 00:12:59;;;;;;;;;;;21.30;89.40;21.60;99104.00;;;;335486;29;83391;-86
2021/07/12 00:13:10;;;;;;;;;;;21.30;89.40;21.50;99102.00;;;;337205;28;93963;-87
2021/07/12 00:13:23;;;;;;;;;;;21.30;90.00;21.50;99109.00;;;;339446;28;82521;-86
2021/07/12 00:13:34;;;;;;;;;;;21.40;89.40;21.60;99112.00;;;;337191;28;94954;-86
2021/07/12 00:13:48;;;;;;;;;;;21.40;89.40;21.60;99109.00;;;;335463;29;82426;-87
2021/07/12 00:14:00;;;;;;;;;;;21.40;89.50;21.60;99111.00;;;;336116;28;93518;-87
2021/07/12 00:14:12;;;;;;;;;;;21.40;89.50;21.70;99108.00;;;;335468;29;82354;-87
2021/07/12 00:14:24;;;;;;;;;;;21.40;89.70;21.70;99105.00;;;;334625;29;97426;-87
2021/07/12 00:14:35;;;;;;;;;;;21.40;89.80;21.70;99111.00;;;;335435;29;82346;-86
2021/07/12 00:14:47;;;;;;;;;;;21.40;89.50;21.60;99102.00;;;;334752;29;93001;-87
2021/07/12 00:14:59;;;;;;;;;;;21.40;89.40;21.60;99108.00;;;;335959;28;82455;-86
2021/07/12 00:15:12;;;;;;;;;;;21.40;89.40;21.60;99109.00;;;;334998;28;95484;-87
2021/07/12 00:15:24;;;;;;;;;;;21.40;89.90;21.60;99110.00;;;;338032;28;83453;-86
2021/07/12 00:15:35;;;;;;;;;;;21.40;90.30;21.60;99106.00;;;;335542;28;95619;-87
2021/07/12 00:15:47;;;;;;;;;;;21.40;90.00;21.50;99114.00;;;;338086;28;83213;-86
2021/07/12 00:15:59;;;;;;;;;;;21.40;89.80;21.50;99111.00;;;;336009;28;92383;-86
2021/07/12 00:16:11;;;;;;;;;;;21.40;89.90;21.50;99102.00;;;;336522;28;83519;-86
2021/07/12 00:16:23;;;;;;;;;;;21.40;90.00;21.50;99110.00;;;;334701;29;94548;-86
2021/07/12 00:16:35;;;;;;;;;;;21.40;90.10;21.50;99113.00;;;;337997;28;83355;-86
2021/07/12 00:16:47;;;;;;;;;;;21.40;89.60;21.50;99113.00;;;;335943;28;94376;-87
2021/07/12 00:16:59;;;;;;;;;;;21.30;90.00;21.40;99112.00;;;;336736;28;83486;-86
2021/07/12 00:17:11;;;;;;;;;;;21.30;90.00;21.50;99108.00;;;;334785;29;94053;-87
2021/07/12 00:17:23;;;;;;;;;;;21.30;89.40;21.50;99112.00;;;;336680;28;83525;-87
2021/07/12 00:17:35;;;;;;;;;;;21.30;89.10;21.50;99101.00;;;;334521;29;95741;-86
2021/07/12 00:17:47;;;;;;;;;;;21.30;89.10;21.50;99101.00;;;;333035;29;83214;-87
2021/07/12 00:17:59;;;;;;;;;;;21.30;89.20;21.50;99106.00;;;;333012;29;93762;-86
2021/07/12 00:18:11;;;;;;;;;;;21.30;89.70;21.50;99114.00;;;;336402;28;85436;-87
2021/07/12 00:18:23;;;;;;;;;;;21.30;89.60;21.50;99109.00;;;;335773;28;94631;-86
2021/07/12 00:18:34;;;;;;;;;;;21.30;89.90;21.50;99106.00;;;;335459;29;83176;-86
2021/07/12 00:18:46;;;;;;;;;;;21.30;90.00;21.50;99108.00;;;;335976;28;95561;-87
2021/07/12 00:18:58;;;;;;;;;;;21.30;89.50;21.40;99116.00;;;;336778;28;83229;-87
2021/07/12 00:19:10;;;;;;;;;;;21.30;90.20;21.40;99109.00;;;;335799;28;95464;-87
2021/07/12 00:19:22;;;;;;;;;;;21.30;90.40;21.30;99109.00;;;;336497;28;83361;-87
2021/07/12 00:19:33;;;;;;;;;;;21.30;90.40;21.30;99110.00;;;;337266;28;94154;-87
2021/07/12 00:19:45;;;;;;;;;;;21.30;90.30;21.30;99114.00;;;;338012;28;83286;-86
2021/07/12 00:19:57;;;;;;;;;;;21.30;90.10;21.30;99111.00;;;;337426;28;93390;-87
2021/07/12 00:20:11;;;;;;;;;;;21.30;90.20;21.30;99113.00;;;;337986;28;83392;-87
2021/07/12 00:20:23;;;;;;;;;;;21.30;90.40;21.30;99111.00;;;;337395;28;93846;-87
2021/07/12 00:20:34;;;;;;;;;;;21.30;90.00;21.30;99107.00;;;;336673;28;83252;-87
2021/07/12 00:20:46;;;;;;;;;;;21.30;90.40;21.20;99119.00;;;;334726;29;93832;-87
2021/07/12 00:20:58;;;;;;;;;;;21.30;90.50;21.20;99114.00;;;;336565;28;83235;-87
2021/07/12 00:21:10;;;;;;;;;;;21.30;90.60;21.20;99116.00;;;;335656;28;93719;-87
2021/07/12 00:21:22;;;;;;;;;;;21.30;90.70;21.30;99110.00;;;;336491;28;83286;-86
2021/07/12 00:21:34;;;;;;;;;;;21.30;90.50;21.30;99113.00;;;;332657;29;94386;-87
2021/07/12 00:21:46;;;;;;;;;;;21.30;90.50;21.30;99114.00;;;;335516;29;83186;-87
2021/07/12 00:21:58;;;;;;;;;;;21.30;90.20;21.30;99120.00;;;;336091;28;92665;-87
2021/07/12 00:22:09;;;;;;;;;;;21.30;90.40;21.20;99116.00;;;;337887;28;83268;-87
2021/07/12 00:22:21;;;;;;;;;;;21.30;90.40;21.30;99120.00;;;;335941;28;94094;-87
2021/07/12 00:22:33;;;;;;;;;;;21.30;90.40;21.40;99118.00;;;;335130;29;83324;-86
2021/07/12 00:22:45;;;;;;;;;;;21.20;90.30;21.40;99111.00;;;;337192;28;95618;-86
2021/07/12 00:22:57;;;;;;;;;;;21.30;90.20;21.40;99118.00;;;;336676;28;83284;-87
2021/07/12 00:23:09;;;;;;;;;;;21.20;90.20;21.30;99119.00;;;;335861;28;97480;-86
2021/07/12 00:23:21;;;;;;;;;;;21.30;90.70;21.30;99121.00;;;;336869;28;82179;-87
2021/07/12 00:23:32;;;;;;;;;;;21.20;90.50;21.30;99122.00;;;;337244;28;94508;-88
2021/07/12 00:23:44;;;;;;;;;;;21.20;90.30;21.30;99130.00;;;;336773;28;82413;-86
2021/07/12 00:23:56;;;;;;;;;;;21.20;90.50;21.40;99128.00;;;;334648;29;93997;-87
2021/07/12 00:24:07;;;;;;;;;;;21.20;90.20;21.40;99128.00;;;;332935;29;83665;-86
2021/07/12 00:24:20;;;;;;;;;;;21.30;90.20;21.30;99132.00;;;;333197;29;93829;-87
2021/07/12 00:24:31;;;;;;;;;;;21.30;90.40;21.30;99128.00;;;;333988;29;82555;-87
2021/07/12 00:24:43;;;;;;;;;;;21.20;90.20;21.30;99136.00;;;;335947;28;94565;-87
2021/07/12 00:24:55;;;;;;;;;;;21.20;90.30;21.30;99143.00;;;;336767;28;83240;-86
2021/07/12 00:25:07;;;;;;;;;;;21.20;90.30;21.30;99135.00;;;;334550;29;93733;-86
2021/07/12 00:25:19;;;;;;;;;;;21.20;90.20;21.20;99139.00;;;;335348;28;83294;-87
2021/07/12 00:25:31;;;;;;;;;;;21.20;90.60;21.20;99134.00;;;;338451;28;93843;-86
2021/07/12 00:25:43;;;;;;;;;;;21.20;90.80;21.10;99143.00;;;;339211;28;83245;-86
2021/07/12 00:25:54;;;;;;;;;;;21.20;91.10;21.10;99145.00;;;;337365;28;93468;-86
2021/07/12 00:26:06;;;;;;;;;;;21.20;91.10;21.10;99143.00;;;;336693;28;83329;-86
2021/07/12 00:26:18;;;;;;;;;;;21.20;91.20;21.10;99149.00;;;;335853;28;95970;-86
2021/07/12 00:26:30;;;;;;;;;;;21.20;91.10;21.30;99147.00;;;;336735;28;83350;-86
2021/07/12 00:26:41;;;;;;;;;;;21.20;91.10;21.40;99145.00;;;;334691;29;94622;-86
2021/07/12 00:26:53;;;;;;;;;;;21.20;90.80;21.30;99147.00;;;;337934;28;83524;-86
2021/07/12 00:27:05;;;;;;;;;;;21.20;90.80;21.30;99152.00;;;;332820;29;95893;-86
2021/07/12 00:27:16;;;;;;;;;;;21.20;91.10;21.30;99151.00;;;;335707;28;83206;-86
2021/07/12 00:27:28;;;;;;;;;;;21.20;91.00;21.30;99147.00;;;;334655;29;93882;-86
2021/07/12 00:27:40;;;;;;;;;;;21.20;90.60;21.30;99155.00;;;;336647;28;83458;-86
2021/07/12 00:27:52;;;;;;;;;;;21.20;90.40;21.30;99152.00;;;;337306;28;93498;-86
2021/07/12 00:28:04;;;;;;;;;;;21.20;90.40;21.20;99152.00;;;;333896;29;83247;-86
2021/07/12 00:28:15;;;;;;;;;;;21.20;90.90;21.10;99161.00;;;;333438;29;94476;-86
2021/07/12 00:28:27;;;;;;;;;;;21.20;91.00;21.20;99152.00;;;;336587;28;83432;-86
2021/07/12 00:28:39;;;;;;;;;;;21.20;90.90;21.20;99158.00;;;;336053;28;93870;-86
2021/07/12 00:28:50;;;;;;;;;;;21.20;91.00;21.30;99162.00;;;;336641;28;83186;-87
2021/07/12 00:29:02;;;;;;;;;;;21.20;90.80;21.20;99159.00;;;;336001;28;94134;-86
2021/07/12 00:29:14;;;;;;;;;;;21.20;91.00;21.30;99159.00;;;;335051;29;83422;-86
2021/07/12 00:29:26;;;;;;;;;;;21.20;90.80;21.30;99159.00;;;;337065;28;94259;-86
2021/07/12 00:29:38;;;;;;;;;;;21.20;90.90;21.30;99153.00;;;;335338;29;83152;-87
2021/07/12 00:29:50;;;;;;;;;;;21.20;90.70;21.30;99163.00;;;;334641;29;96658;-86
2021/07/12 00:30:05;;;;;;;;;;;21.20;90.70;21.30;99160.00;;;;335808;28;83323;-86
2021/07/12 00:30:18;;;;;;;;;;;21.20;90.40;21.30;99160.00;;;;334932;28;94151;-86
2021/07/12 00:30:30;;;;;;;;;;;21.20;90.80;21.30;99154.00;;;;336551;28;83335;-87
2021/07/12 00:30:42;;;;;;;;;;;21.20;90.90;21.20;99165.00;;;;335980;28;95823;-86
2021/07/12 00:30:53;;;;;;;;;;;21.20;91.00;21.20;99161.00;;;;337951;28;83424;-86
2021/07/12 00:31:05;;;;;;;;;;;21.20;91.10;21.20;99165.00;;;;335837;28;94140;-87
2021/07/12 00:31:17;;;;;;;;;;;21.20;91.10;21.20;99158.00;;;;338091;28;83509;-86
2021/07/12 00:31:29;;;;;;;;;;;21.20;91.30;21.40;99162.00;;;;338383;28;93879;-86
2021/07/12 00:31:42;;;;;;;;;;;21.20;91.20;21.40;99169.00;;;;338010;28;83449;-87
2021/07/12 00:31:53;;;;;;;;;;;21.20;91.00;21.30;99161.00;;;;334648;29;93526;-86
2021/07/12 00:32:06;;;;;;;;;;;21.20;91.00;21.40;99161.00;;;;335397;29;83441;-87
2021/07/12 00:32:18;;;;;;;;;;;21.20;91.10;21.30;99162.00;;;;335896;28;95722;-87
2021/07/12 00:32:30;;;;;;;;;;;21.20;91.20;21.20;99168.00;;;;335433;29;83223;-87
2021/07/12 00:32:42;;;;;;;;;;;21.20;91.20;21.20;99168.00;;;;334632;29;94554;-87
2021/07/12 00:32:55;;;;;;;;;;;21.20;91.20;21.10;99168.00;;;;336611;28;82419;-86
2021/07/12 00:33:07;;;;;;;;;;;21.20;91.10;21.00;99163.00;;;;334415;28;94258;-86
2021/07/12 00:33:19;;;;;;;;;;;21.20;91.20;21.00;99167.00;;;;334491;29;83609;-86
2021/07/12 00:33:32;;;;;;;;;;;21.10;91.20;21.00;99172.00;;;;333416;29;94157;-86
2021/07/12 00:33:43;;;;;;;;;;;21.20;91.10;21.10;99167.00;;;;335120;29;83314;-86
2021/07/12 00:33:55;;;;;;;;;;;21.10;91.30;21.10;99159.00;;;;337307;28;93701;-87
2021/07/12 00:34:07;;;;;;;;;;;21.10;91.20;21.20;99169.00;;;;337830;28;82431;-87
2021/07/12 00:34:18;;;;;;;;;;;21.10;91.10;21.30;99168.00;;;;334672;29;94228;-86
2021/07/12 00:34:30;;;;;;;;;;;21.10;91.00;21.20;99174.00;;;;335358;29;83393;-87
2021/07/12 00:34:42;;;;;;;;;;;21.10;91.10;21.00;99162.00;;;;334610;29;95781;-86
2021/07/12 00:34:53;;;;;;;;;;;21.10;91.10;21.00;99168.00;;;;336585;28;83265;-86
2021/07/12 00:35:06;;;;;;;;;;;21.20;91.10;21.20;99158.00;;;;335956;28;94599;-86
2021/07/12 00:35:18;;;;;;;;;;;21.10;90.90;21.20;99162.00;;;;336771;28;83277;-86
2021/07/12 00:35:29;;;;;;;;;;;21.10;90.80;21.10;99168.00;;;;335873;28;93855;-86
2021/07/12 00:35:41;;;;;;;;;;;21.10;90.80;21.20;99169.00;;;;336846;28;82234;-87
2021/07/12 00:35:53;;;;;;;;;;;21.10;90.60;21.30;99164.00;;;;335954;28;94040;-86
2021/07/12 00:36:05;;;;;;;;;;;21.10;90.60;21.30;99164.00;;;;335535;28;82488;-86
2021/07/12 00:36:17;;;;;;;;;;;21.10;90.70;21.20;99161.00;;;;333628;29;93118;-87
2021/07/12 00:36:28;;;;;;;;;;;21.10;90.60;21.30;99159.00;;;;336822;28;83254;-86
2021/07/12 00:36:40;;;;;;;;;;;21.10;90.60;21.10;99159.00;;;;335679;28;94610;-86
2021/07/12 00:36:52;;;;;;;;;;;21.10;90.70;21.00;99159.00;;;;333855;29;83623;-86
2021/07/12 00:37:03;;;;;;;;;;;21.10;90.70;21.10;99159.00;;;;333164;29;95735;-86
2021/07/12 00:37:15;;;;;;;;;;;21.10;90.70;21.10;99159.00;;;;336623;28;83367;-86
2021/07/12 00:37:27;;;;;;;;;;;21.10;90.80;21.00;99165.00;;;;335953;28;95834;-86
2021/07/12 00:37:39;;;;;;;;;;;21.00;90.80;21.00;99150.00;;;;336677;28;83286;-86
2021/07/12 00:37:51;;;;;;;;;;;21.10;90.70;21.20;99151.00;;;;335932;28;95137;-86
2021/07/12 00:38:03;;;;;;;;;;;21.10;90.50;21.20;99157.00;;;;336565;28;83341;-87
2021/07/12 00:38:14;;;;;;;;;;;21.10;90.50;21.30;99156.00;;;;334554;29;94653;-87
2021/07/12 00:38:26;;;;;;;;;;;21.10;90.40;21.10;99152.00;;;;333996;29;83235;-86
2021/07/12 00:38:38;;;;;;;;;;;21.10;90.50;21.10;99152.00;;;;333311;29;94571;-87
2021/07/12 00:38:50;;;;;;;;;;;21.10;90.70;21.10;99148.00;;;;335373;29;83499;-86
2021/07/12 00:39:03;;;;;;;;;;;21.00;90.60;20.90;99145.00;;;;332280;29;94511;-86
2021/07/12 00:39:14;;;;;;;;;;;21.00;90.70;20.90;99152.00;;;;337314;28;83346;-86
2021/07/12 00:39:26;;;;;;;;;;;21.00;90.70;20.80;99150.00;;;;334612;29;94230;-86
2021/07/12 00:39:38;;;;;;;;;;;21.00;90.70;20.80;99151.00;;;;337762;28;83476;-86
2021/07/12 00:39:50;;;;;;;;;;;21.00;90.60;20.70;99150.00;;;;334625;29;93782;-87
2021/07/12 00:40:03;;;;;;;;;;;21.00;90.60;20.70;99147.00;;;;335059;29;83371;-86
2021/07/12 00:40:16;;;;;;;;;;;21.00;90.70;20.90;99147.00;;;;337121;28;96318;-86
2021/07/12 00:40:28;;;;;;;;;;;21.00;90.50;21.00;99146.00;;;;336758;28;83292;-86
2021/07/12 00:40:40;;;;;;;;;;;21.00;90.50;21.00;99146.00;;;;337306;28;93022;-86
2021/07/12 00:40:52;;;;;;;;;;;21.00;90.60;20.90;99143.00;;;;336651;28;83097;-86
2021/07/12 00:41:03;;;;;;;;;;;21.00;90.50;20.80;99142.00;;;;335885;28;96880;-86
2021/07/12 00:41:15;;;;;;;;;;;21.00;90.60;20.80;99142.00;;;;336739;28;83390;-86
2021/07/12 00:41:27;;;;;;;;;;;21.00;90.60;20.80;99148.00;;;;333297;29;94953;-86
2021/07/12 00:41:39;;;;;;;;;;;20.90;90.60;21.00;99136.00;;;;334201;29;82567;-87
2021/07/12 00:41:51;;;;;;;;;;;20.90;90.30;21.00;99135.00;;;;333435;29;92918;-86
2021/07/12 00:42:03;;;;;;;;;;;20.90;90.30;21.00;99135.00;;;;334666;29;83352;-86
2021/07/12 00:42:14;;;;;;;;;;;20.90;90.30;21.00;99135.00;;;;335423;28;96281;-86
2021/07/12 00:42:26;;;;;;;;;;;20.90;90.40;20.90;99137.00;;;;336766;28;83288;-86
2021/07/12 00:42:38;;;;;;;;;;;21.00;90.60;20.80;99131.00;;;;334510;29;93915;-86
2021/07/12 00:42:50;;;;;;;;;;;20.90;90.70;20.80;99137.00;;;;335493;29;83328;-86
2021/07/12 00:43:04;;;;;;;;;;;20.90;90.60;20.90;99131.00;;;;335800;28;93185;-86
2021/07/12 00:43:15;;;;;;;;;;;20.90;90.50;20.90;99135.00;;;;334138;29;83300;-86
2021/07/12 00:43:27;;;;;;;;;;;20.90;90.60;20.80;99126.00;;;;334560;29;94306;-86
2021/07/12 00:43:39;;;;;;;;;;;20.90;90.80;21.00;99123.00;;;;335081;29;82604;-86
2021/07/12 00:43:51;;;;;;;;;;;20.90;90.60;20.80;99125.00;;;;337108;28;93650;-86
2021/07/12 00:44:06;;;;;;;;;;;20.90;90.70;20.90;99125.00;;;;338072;28;82203;-86
2021/07/12 00:44:17;;;;;;;;;;;20.80;90.60;21.00;99130.00;;;;335903;28;93709;-86
2021/07/12 00:44:29;;;;;;;;;;;20.80;90.40;20.90;99122.00;;;;336695;28;83301;-86
2021/07/12 00:44:42;;;;;;;;;;;20.80;90.40;20.90;99130.00;;;;337288;28;94185;-86
2021/07/12 00:44:53;;;;;;;;;;;20.80;90.70;20.90;99128.00;;;;339375;28;83421;-86
2021/07/12 00:45:07;;;;;;;;;;;20.80;90.50;20.80;99130.00;;;;336838;28;95043;-86
2021/07/12 00:45:23;;;;;;;;;;;20.80;90.60;20.80;99135.00;;;;335231;29;83213;-86
2021/07/12 00:45:36;;;;;;;;;;;20.80;90.70;20.70;99134.00;;;;334416;28;94217;-86
2021/07/12 00:45:48;;;;;;;;;;;20.80;90.80;20.70;99136.00;;;;338048;28;83500;-86
2021/07/12 00:45:59;;;;;;;;;;;20.80;90.70;20.80;99127.00;;;;335990;28;93904;-86
2021/07/12 00:46:12;;;;;;;;;;;20.80;90.70;20.90;99129.00;;;;336744;28;83370;-86
2021/07/12 00:46:23;;;;;;;;;;;20.80;90.50;21.00;99124.00;;;;334576;29;95597;-87
2021/07/12 00:46:35;;;;;;;;;;;20.80;90.50;20.90;99139.00;;;;335373;29;83570;-86
2021/07/12 00:46:47;;;;;;;;;;;20.80;90.90;21.00;99126.00;;;;333325;29;94328;-86
2021/07/12 00:46:59;;;;;;;;;;;20.80;91.00;20.90;99127.00;;;;335195;29;82415;-86
2021/07/12 00:47:10;;;;;;;;;;;20.80;90.70;20.80;99134.00;;;;337285;28;93696;-86
2021/07/12 00:47:22;;;;;;;;;;;20.80;90.80;20.80;99133.00;;;;336729;28;83338;-86
2021/07/12 00:47:34;;;;;;;;;;;20.80;90.70;20.90;99127.00;;;;335718;28;97247;-86
2021/07/12 00:47:46;;;;;;;;;;;20.80;90.50;20.90;99131.00;;;;338064;28;83190;-86
2021/07/12 00:47:58;;;;;;;;;;;20.80;90.50;20.80;99125.00;;;;338652;28;94505;-86
2021/07/12 00:48:10;;;;;;;;;;;20.80;90.70;20.80;99129.00;;;;337539;28;83521;-86
2021/07/12 00:48:21;;;;;;;;;;;20.80;90.70;20.80;99124.00;;;;337070;28;94057;-86
2021/07/12 00:48:34;;;;;;;;;;;20.80;90.70;20.90;99120.00;;;;337406;28;83341;-86
2021/07/12 00:48:45;;;;;;;;;;;20.80;90.70;20.90;99119.00;;;;337230;28;93842;-86
2021/07/12 00:48:57;;;;;;;;;;;20.80;90.30;20.80;99119.00;;;;336680;28;83338;-86
2021/07/12 00:49:09;;;;;;;;;;;20.80;90.40;20.80;99119.00;;;;334256;29;93979;-86
2021/07/12 00:49:20;;;;;;;;;;;20.80;90.60;20.80;99115.00;;;;335368;29;83460;-86
2021/07/12 00:49:32;;;;;;;;;;;20.80;90.60;20.80;99108.00;;;;335934;28;91937;-86
2021/07/12 00:49:44;;;;;;;;;;;20.80;90.60;20.70;99120.00;;;;336757;28;82418;-86
2021/07/12 00:49:56;;;;;;;;;;;20.80;90.80;20.80;99111.00;;;;335982;28;92493;-86
2021/07/12 00:50:08;;;;;;;;;;;20.80;90.80;20.70;99118.00;;;;333956;29;83323;-86
2021/07/12 00:50:22;;;;;;;;;;;20.80;90.80;20.70;99117.00;;;;334468;29;94157;-86
2021/07/12 00:50:35;;;;;;;;;;;20.80;91.00;20.70;99122.00;;;;337985;28;82468;-86
2021/07/12 00:50:47;;;;;;;;;;;20.70;90.80;20.80;99112.00;;;;335982;28;94444;-86
2021/07/12 00:50:59;;;;;;;;;;;20.80;90.50;20.80;99113.00;;;;336179;28;83305;-86
2021/07/12 00:51:11;;;;;;;;;;;20.70;90.50;20.80;99119.00;;;;334324;29;94437;-86
2021/07/12 00:51:23;;;;;;;;;;;20.80;90.70;20.70;99117.00;;;;335205;29;82452;-86
2021/07/12 00:51:35;;;;;;;;;;;20.70;90.70;20.60;99115.00;;;;335299;28;93824;-86
2021/07/12 00:51:47;;;;;;;;;;;20.70;90.90;20.70;99107.00;;;;336721;28;83282;-86
2021/07/12 00:51:59;;;;;;;;;;;20.70;90.80;20.70;99123.00;;;;334714;29;93216;-86
2021/07/12 00:52:10;;;;;;;;;;;20.70;90.70;20.70;99112.00;;;;335133;29;83394;-86
2021/07/12 00:52:22;;;;;;;;;;;20.70;90.70;20.70;99117.00;;;;334666;29;94633;-86
2021/07/12 00:52:34;;;;;;;;;;;20.70;90.70;20.80;99112.00;;;;335430;29;83146;-86
2021/07/12 00:52:46;;;;;;;;;;;20.70;90.60;20.60;99111.00;;;;334456;29;97069;-86
2021/07/12 00:52:58;;;;;;;;;;;20.70;90.90;20.70;99121.00;;;;336620;28;83445;-86
2021/07/12 00:53:10;;;;;;;;;;;20.70;90.80;20.80;99117.00;;;;334581;29;95659;-86
2021/07/12 00:53:21;;;;;;;;;;;20.70;90.70;20.80;99118.00;;;;336401;28;83332;-86
2021/07/12 00:53:33;;;;;;;;;;;20.70;90.80;20.80;99125.00;;;;335901;28;94346;-86
2021/07/12 00:53:45;;;;;;;;;;;20.70;90.60;20.80;99113.00;;;;338062;28;83465;-86
2021/07/12 00:53:58;;;;;;;;;;;20.70;91.00;20.70;99111.00;;;;337337;28;93739;-86
2021/07/12 00:54:10;;;;;;;;;;;20.70;91.00;20.70;99113.00;;;;334988;29;82375;-86
2021/07/12 00:54:27;;;;;;;;;;;20.70;91.00;20.70;99110.00;;;;334113;29;97340;-86
2021/07/12 00:54:38;;;;;;;;;;;20.70;90.90;20.80;99109.00;;;;337784;28;83361;-86
2021/07/12 00:54:50;;;;;;;;;;;20.70;90.90;20.70;99107.00;;;;335908;28;94162;-87
2021/07/12 00:55:08;;;;;;;;;;;20.70;91.00;20.70;99107.00;;;;339024;28;83406;-86
2021/07/12 00:55:30;;;;;;;;;;;20.70;91.00;20.80;99106.00;;;;335920;28;94697;-86
2021/07/12 00:55:45;;;;;;;;;;;20.70;90.70;20.70;99099.00;;;;336720;28;83349;-86
2021/07/12 00:55:57;;;;;;;;;;;20.70;91.00;20.70;99105.00;;;;336991;28;93690;-86
2021/07/12 00:56:08;;;;;;;;;;;20.70;91.10;20.80;99099.00;;;;337979;28;83339;-86
2021/07/12 00:56:20;;;;;;;;;;;20.70;90.80;20.80;99097.00;;;;337274;28;93631;-87
2021/07/12 00:56:32;;;;;;;;;;;20.70;90.60;20.70;99098.00;;;;336690;28;83337;-86
2021/07/12 00:56:43;;;;;;;;;;;20.70;90.90;20.70;99100.00;;;;334547;29;95742;-85
2021/07/12 00:56:57;;;;;;;;;;;20.70;90.90;20.70;99097.00;;;;336715;28;83405;-86
2021/07/12 00:57:09;;;;;;;;;;;20.60;90.90;20.70;99091.00;;;;336665;28;97859;-86
2021/07/12 00:57:21;;;;;;;;;;;20.60;90.80;20.70;99092.00;;;;336418;28;82510;-86
2021/07/12 00:57:32;;;;;;;;;;;20.60;90.90;20.70;99098.00;;;;333094;29;95862;-86
2021/07/12 00:57:44;;;;;;;;;;;20.60;90.90;20.60;99091.00;;;;337965;28;83196;-86
2021/07/12 00:57:56;;;;;;;;;;;20.70;91.00;20.50;99096.00;;;;337183;28;97879;-86
2021/07/12 00:58:10;;;;;;;;;;;20.60;91.30;20.70;99099.00;;;;335603;28;83226;-86
2021/07/12 00:58:23;;;;;;;;;;;20.60;91.20;20.80;99093.00;;;;336944;28;92304;-86
2021/07/12 00:58:35;;;;;;;;;;;20.60;91.10;20.70;99096.00;;;;338068;28;82456;-86
2021/07/12 00:58:47;;;;;;;;;;;20.60;91.30;20.80;99085.00;;;;334550;29;94939;-86
2021/07/12 00:58:59;;;;;;;;;;;20.60;91.20;20.70;99088.00;;;;335397;29;83432;-86
2021/07/12 00:59:10;;;;;;;;;;;20.60;91.30;20.60;99083.00;;;;335945;28;94577;-86
2021/07/12 00:59:22;;;;;;;;;;;20.60;91.40;20.50;99086.00;;;;337925;28;83388;-86
2021/07/12 00:59:35;;;;;;;;;;;20.60;91.60;20.50;99075.00;;;;337104;28;93951;-86
2021/07/12 00:59:47;;;;;;;;;;;20.60;91.50;20.60;99080.00;;;;336663;28;83245;-86